Time;durP1;ratioP1;P1;durP2;ratioP2;P2;SDS_P1;SDS_P2;PMS_P1;PMS_P2;Temp;Humidity;BMP_temperature;BMP_pressure;BME280_temperature;BME280_humidity;BME280_pressure;Samples;Min_cycle;Max_cycle;Signal;HPM_P1;HPM_P2
2022/06/07 00:02:20;;;;;;;5.85;5.35;;;;;;;;;;5077992;28;20470;-75
2022/06/07 00:04:46;;;;;;;5.70;5.30;;;;;;;;;;5096659;28;20035;-75
2022/06/07 00:07:11;;;;;;;5.63;5.07;;;;;;;;;;5096353;28;20158;-75
2022/06/07 00:09:36;;;;;;;5.82;5.35;;;;;;;;;;5096089;28;20043;-75
2022/06/07 00:12:02;;;;;;;5.78;5.15;;;;;;;;;;5096350;28;20027;-75
2022/06/07 00:14:28;;;;;;;5.90;5.45;;;;;;;;;;5077479;28;20029;-74
2022/06/07 00:16:56;;;;;;;5.77;5.17;;;;;;;;;;5077723;28;20445;-74
2022/06/07 00:19:22;;;;;;;5.78;5.25;;;;;;;;;;5095736;28;20303;-74
2022/06/07 00:21:47;;;;;;;5.38;4.97;;;;;;;;;;5095717;28;20028;-74
2022/06/07 00:24:13;;;;;;;5.80;5.10;;;;;;;;;;5095572;28;20039;-74
2022/06/07 00:26:38;;;;;;;6.10;5.60;;;;;;;;;;5095776;28;20035;-74
2022/06/07 00:29:06;;;;;;;5.35;4.95;;;;;;;;;;5095443;28;20470;-75
2022/06/07 00:31:32;;;;;;;5.07;4.68;;;;;;;;;;5095325;28;20442;-75
2022/06/07 00:33:57;;;;;;;5.47;5.03;;;;;;;;;;5077295;28;20035;-74
2022/06/07 00:36:23;;;;;;;6.13;5.00;;;;;;;;;;5094929;28;20374;-75
2022/06/07 00:38:48;;;;;;;4.85;4.55;;;;;;;;;;5077472;28;20116;-74
2022/06/07 00:41:13;;;;;;;5.78;5.22;;;;;;;;;;5095390;28;20062;-74
2022/06/07 00:43:40;;;;;;;13.65;9.75;;;;;;;;;;5077139;28;20028;-75
2022/06/07 00:46:06;;;;;;;16.50;9.55;;;;;;;;;;5095597;28;20118;-75
2022/06/07 00:48:31;;;;;;;10.40;7.88;;;;;;;;;;5095506;28;20039;-74
2022/06/07 00:51:01;;;;;;;6.20;5.63;;;;;;;;;;5095016;28;20075;-74
2022/06/07 00:53:29;;;;;;;5.40;5.00;;;;;;;;;;5095620;28;20097;-73
2022/06/07 00:56:01;;;;;;;5.60;5.13;;;;;;;;;;5077214;28;20032;-71
2022/06/07 00:58:28;;;;;;;5.78;5.28;;;;;;;;;;5077240;28;20028;-71
2022/06/07 01:00:54;;;;;;;5.90;5.40;;;;;;;;;;5077229;28;20108;-71
2022/06/07 01:03:20;;;;;;;7.38;5.45;;;;;;;;;;5077116;28;20036;-71
2022/06/07 01:05:48;;;;;;;6.15;5.55;;;;;;;;;;5077371;28;20035;-71
2022/06/07 01:11:06;;;;;;;5.78;5.28;;;;;;;;;;5076822;28;20085;-71
2022/06/07 01:13:34;;;;;;;5.90;5.38;;;;;;;;;;5076611;28;20040;-72
2022/06/07 01:16:07;;;;;;;5.55;5.15;;;;;;;;;;5076857;28;20034;-72
2022/06/07 01:18:36;;;;;;;5.82;5.32;;;;;;;;;;5094984;28;20565;-72
2022/06/07 01:21:09;;;;;;;6.47;5.87;;;;;;;;;;5076494;28;20440;-72
2022/06/07 01:23:34;;;;;;;9.48;7.18;;;;;;;;;;5076864;28;20490;-72
2022/06/07 01:26:00;;;;;;;12.05;9.80;;;;;;;;;;5075948;28;20055;-72
2022/06/07 01:28:27;;;;;;;13.30;10.48;;;;;;;;;;5076719;28;20115;-74
2022/06/07 01:30:56;;;;;;;14.02;10.77;;;;;;;;;;5076239;28;20459;-74
2022/06/07 01:33:21;;;;;;;15.45;11.57;;;;;;;;;;5094536;28;20044;-74
2022/06/07 01:35:48;;;;;;;13.18;10.18;;;;;;;;;;5076808;28;20032;-72
2022/06/07 01:38:14;;;;;;;14.63;11.05;;;;;;;;;;5094633;28;20028;-73
2022/06/07 01:43:24;;;;;;;12.35;9.65;;;;;;;;;;5076151;28;20036;-73
2022/06/07 01:45:49;;;;;;;13.23;9.73;;;;;;;;;;5094604;28;20050;-70
2022/06/07 01:48:15;;;;;;;12.27;9.88;;;;;;;;;;5094771;28;20064;-70
2022/06/07 01:50:40;;;;;;;12.27;8.95;;;;;;;;;;5076188;28;20035;-73
2022/06/07 01:53:05;;;;;;;11.05;9.07;;;;;;;;;;5076120;28;20377;-74
2022/06/07 01:55:32;;;;;;;11.20;9.45;;;;;;;;;;5075956;28;20028;-70
2022/06/07 01:58:02;;;;;;;9.95;8.38;;;;;;;;;;5076250;28;20096;-70
2022/06/07 02:00:27;;;;;;;11.05;9.95;;;;;;;;;;5076278;28;20070;-74
2022/06/07 02:02:53;;;;;;;12.82;9.88;;;;;;;;;;5094295;28;20040;-75
2022/06/07 02:05:18;;;;;;;12.20;9.57;;;;;;;;;;5076293;28;20020;-75
2022/06/07 02:07:51;;;;;;;12.95;9.75;;;;;;;;;;5076050;28;20058;-75
2022/06/07 02:10:23;;;;;;;13.38;10.05;;;;;;;;;;5076132;28;20044;-75
2022/06/07 02:12:49;;;;;;;11.98;10.65;;;;;;;;;;5075999;28;20036;-75
2022/06/07 02:15:15;;;;;;;11.88;10.35;;;;;;;;;;5076120;28;20016;-75
2022/06/07 02:17:41;;;;;;;10.80;9.50;;;;;;;;;;5075822;28;20032;-75
2022/06/07 02:20:45;;;;;;;9.65;8.48;;;;;;;;;;5012463;28;20034;-75
2022/06/07 02:23:11;;;;;;;9.40;8.55;;;;;;;;;;5012386;28;20149;-75
2022/06/07 02:25:42;;;;;;;9.43;8.50;;;;;;;;;;5043525;28;20440;-75
2022/06/07 02:28:10;;;;;;;8.82;8.02;;;;;;;;;;5093860;28;20042;-75
2022/06/07 02:30:36;;;;;;;9.05;8.15;;;;;;;;;;5075983;28;20036;-76
2022/06/07 02:33:01;;;;;;;9.70;8.80;;;;;;;;;;5094004;28;20035;-75
2022/06/07 02:35:27;;;;;;;9.45;8.52;;;;;;;;;;5075832;28;20047;-75
2022/06/07 02:37:53;;;;;;;9.07;8.27;;;;;;;;;;5076799;28;20474;-75
2022/06/07 02:40:18;;;;;;;11.38;8.63;;;;;;;;;;5097548;28;20490;-75
2022/06/07 02:42:44;;;;;;;9.38;8.38;;;;;;;;;;5098054;28;20040;-75
2022/06/07 02:45:11;;;;;;;9.77;8.88;;;;;;;;;;5080067;28;20043;-75
2022/06/07 02:47:37;;;;;;;9.80;8.90;;;;;;;;;;5079452;28;20043;-75
2022/06/07 02:50:10;;;;;;;11.80;8.70;;;;;;;;;;5079546;28;20039;-75
2022/06/07 02:52:38;;;;;;;9.27;8.35;;;;;;;;;;5079601;28;20174;-75
2022/06/07 02:55:13;;;;;;;9.18;8.32;;;;;;;;;;5079511;28;20024;-76
2022/06/07 02:57:38;;;;;;;9.75;8.75;;;;;;;;;;5079682;28;20031;-75
2022/06/07 03:00:05;;;;;;;14.65;8.90;;;;;;;;;;5079642;28;20505;-74
2022/06/07 03:02:31;;;;;;;10.95;8.63;;;;;;;;;;5078914;28;20505;-73
2022/06/07 03:04:57;;;;;;;12.45;8.85;;;;;;;;;;5079213;28;20119;-71
2022/06/07 03:07:22;;;;;;;13.13;9.15;;;;;;;;;;5078974;28;20123;-71
2022/06/07 03:09:48;;;;;;;11.45;9.05;;;;;;;;;;5079212;28;20024;-72
2022/06/07 03:12:14;;;;;;;10.65;9.00;;;;;;;;;;5078884;28;20123;-72
2022/06/07 03:14:39;;;;;;;10.18;8.63;;;;;;;;;;5078722;28;20443;-72
2022/06/07 03:17:06;;;;;;;11.68;8.35;;;;;;;;;;5062625;28;20525;-76
2022/06/07 03:19:34;;;;;;;9.90;7.93;;;;;;;;;;5079205;28;20426;-76
2022/06/07 03:22:01;;;;;;;10.88;8.15;;;;;;;;;;5078968;28;20032;-75
2022/06/07 03:24:26;;;;;;;9.77;7.97;;;;;;;;;;5079179;28;20416;-76
2022/06/07 03:26:53;;;;;;;8.95;8.02;;;;;;;;;;5079036;28;20119;-75
2022/06/07 03:29:18;;;;;;;9.57;8.32;;;;;;;;;;5078685;28;20477;-76
2022/06/07 03:31:44;;;;;;;11.75;8.77;;;;;;;;;;5079144;28;20032;-76
2022/06/07 03:34:11;;;;;;;9.07;7.82;;;;;;;;;;5078891;28;20126;-76
2022/06/07 03:36:39;;;;;;;9.15;7.85;;;;;;;;;;5078929;28;20028;-76
2022/06/07 03:39:07;;;;;;;8.70;7.65;;;;;;;;;;5078540;28;20016;-76
2022/06/07 03:41:36;;;;;;;9.45;7.53;;;;;;;;;;5078473;28;20043;-74
2022/06/07 03:44:10;;;;;;;8.05;7.20;;;;;;;;;;5097065;28;20378;-74
2022/06/07 03:46:42;;;;;;;9.57;7.68;;;;;;;;;;5078112;28;20056;-73
2022/06/07 03:49:07;;;;;;;10.38;8.15;;;;;;;;;;5077333;28;20439;-73
2022/06/07 03:51:33;;;;;;;11.82;7.95;;;;;;;;;;5078254;28;20016;-73
2022/06/07 03:53:59;;;;;;;8.35;7.38;;;;;;;;;;5079129;28;20077;-73
2022/06/07 03:56:27;;;;;;;8.35;7.53;;;;;;;;;;5078223;28;20047;-73
2022/06/07 03:58:56;;;;;;;9.73;8.77;;;;;;;;;;5062217;28;20420;-73
2022/06/07 04:01:22;;;;;;;9.18;8.27;;;;;;;;;;5096280;28;20030;-72
2022/06/07 04:03:51;;;;;;;8.70;7.72;;;;;;;;;;5078444;28;20413;-72
2022/06/07 04:06:29;;;;;;;9.02;8.20;;;;;;;;;;5061622;28;20462;-75
2022/06/07 04:09:00;;;;;;;10.00;7.75;;;;;;;;;;5078071;28;20036;-75
2022/06/07 04:11:28;;;;;;;10.57;7.85;;;;;;;;;;5078087;28;20036;-76
2022/06/07 04:13:58;;;;;;;12.30;8.40;;;;;;;;;;5077582;28;20505;-76
2022/06/07 04:16:26;;;;;;;9.27;7.68;;;;;;;;;;5078252;28;20036;-75
2022/06/07 04:18:56;;;;;;;10.77;8.85;;;;;;;;;;5077708;28;20065;-76
2022/06/07 04:21:23;;;;;;;10.18;8.75;;;;;;;;;;5076914;28;20043;-76
2022/06/07 04:23:49;;;;;;;13.32;8.88;;;;;;;;;;5076793;28;20034;-75
2022/06/07 04:26:17;;;;;;;9.75;7.95;;;;;;;;;;5077318;28;20032;-76
2022/06/07 04:28:44;;;;;;;10.77;7.78;;;;;;;;;;5077176;28;20115;-76
2022/06/07 04:31:11;;;;;;;9.57;7.95;;;;;;;;;;5077186;28;20122;-76
2022/06/07 04:33:36;;;;;;;12.95;7.72;;;;;;;;;;5077057;28;20078;-75
2022/06/07 04:36:03;;;;;;;9.30;7.88;;;;;;;;;;5077660;28;20036;-75
2022/06/07 04:38:29;;;;;;;10.57;7.55;;;;;;;;;;5095104;28;20028;-75
2022/06/07 04:40:56;;;;;;;13.85;8.45;;;;;;;;;;5076527;28;20506;-75
2022/06/07 04:43:21;;;;;;;14.48;8.80;;;;;;;;;;5076971;28;20071;-76
2022/06/07 04:45:49;;;;;;;13.15;8.10;;;;;;;;;;5076385;28;20484;-75
2022/06/07 04:48:16;;;;;;;13.35;8.88;;;;;;;;;;5076512;28;20032;-76
2022/06/07 04:51:02;;;;;;;17.40;9.48;;;;;;;;;;5094260;28;20406;-76
2022/06/07 04:53:31;;;;;;;19.77;10.23;;;;;;;;;;5076541;28;20482;-76
2022/06/07 04:55:57;;;;;;;23.83;11.82;;;;;;;;;;5076502;28;20028;-76
2022/06/07 04:58:22;;;;;;;27.08;12.65;;;;;;;;;;5076400;28;20054;-75
2022/06/07 05:00:50;;;;;;;22.90;11.32;;;;;;;;;;5076332;28;20028;-76
2022/06/07 05:03:16;;;;;;;22.15;10.68;;;;;;;;;;5076332;28;20047;-76
2022/06/07 05:05:42;;;;;;;16.50;8.80;;;;;;;;;;5076327;28;20608;-76
2022/06/07 05:08:13;;;;;;;17.90;9.57;;;;;;;;;;5076301;28;20040;-75
2022/06/07 05:10:39;;;;;;;18.58;9.15;;;;;;;;;;5076433;28;20055;-76
2022/06/07 05:13:05;;;;;;;10.90;7.93;;;;;;;;;;5076025;28;20028;-72
2022/06/07 05:15:34;;;;;;;12.93;7.88;;;;;;;;;;5076302;28;20394;-74
2022/06/07 05:18:04;;;;;;;11.52;7.15;;;;;;;;;;5077073;28;20020;-74
2022/06/07 05:20:32;;;;;;;11.20;7.10;;;;;;;;;;5076229;28;20054;-73
2022/06/07 05:23:16;;;;;;;10.70;7.82;;;;;;;;;;5076163;28;20028;-73
2022/06/07 05:25:55;;;;;;;10.05;6.97;;;;;;;;;;5076253;28;20040;-66
2022/06/07 05:28:22;;;;;;;9.43;7.00;;;;;;;;;;5094550;28;20096;-73
2022/06/07 05:30:48;;;;;;;9.23;6.55;;;;;;;;;;5076521;28;20031;-73
2022/06/07 05:33:22;;;;;;;9.60;6.53;;;;;;;;;;5076763;28;20363;-73
2022/06/07 05:35:51;;;;;;;10.23;7.22;;;;;;;;;;5060165;28;20482;-73
2022/06/07 05:38:21;;;;;;;11.00;7.43;;;;;;;;;;5076358;28;20477;-74
2022/06/07 05:40:56;;;;;;;9.07;6.85;;;;;;;;;;5060277;28;20135;-74
2022/06/07 05:43:21;;;;;;;13.23;7.45;;;;;;;;;;5059239;28;20039;-74
2022/06/07 05:45:53;;;;;;;13.00;6.95;;;;;;;;;;5076111;28;20122;-74
2022/06/07 05:52:13;;;;;;;9.98;7.30;;;;;;;;;;5051684;28;20489;-73
2022/06/07 05:54:42;;;;;;;12.40;7.68;;;;;;;;;;5034844;28;20079;-74
2022/06/07 05:57:10;;;;;;;9.50;6.63;;;;;;;;;;5035064;28;20121;-74
2022/06/07 05:59:37;;;;;;;12.15;7.10;;;;;;;;;;5035013;28;20085;-74
2022/06/07 06:02:02;;;;;;;9.13;6.55;;;;;;;;;;5034170;28;20056;-74
2022/06/07 06:04:33;;;;;;;10.02;6.82;;;;;;;;;;5035083;28;20037;-73
2022/06/07 06:06:59;;;;;;;11.15;6.88;;;;;;;;;;5051411;28;20180;-73
2022/06/07 06:16:21;;;;;;;11.70;7.03;;;;;;;;;;5051453;28;20024;-73
2022/06/07 06:22:26;;;;;;;10.57;6.57;;;;;;;;;;5093946;28;20481;-73
2022/06/07 06:28:34;;;;;;;9.52;6.30;;;;;;;;;;5093866;28;20097;-73
2022/06/07 06:34:35;;;;;;;7.85;5.53;;;;;;;;;;5093552;28;20389;-73
2022/06/07 06:44:16;;;;;;;7.45;5.63;;;;;;;;;;5093730;28;20113;-73
2022/06/07 06:50:18;;;;;;;9.95;6.13;;;;;;;;;;5093481;28;20086;-73
2022/06/07 06:56:20;;;;;;;5.25;4.75;;;;;;;;;;5093677;28;20046;-73
2022/06/07 07:02:21;;;;;;;7.22;5.15;;;;;;;;;;5093583;28;20094;-74
2022/06/07 07:08:45;;;;;;;6.00;4.72;;;;;;;;;;5050960;28;20406;-73
2022/06/07 07:14:48;;;;;;;6.85;4.72;;;;;;;;;;5051246;28;20031;-73
2022/06/07 07:17:59;;;;;;;4.10;3.70;;;;;;;;;;5011900;28;20038;-73
2022/06/07 07:24:05;;;;;;;6.10;3.97;;;;;;;;;;5011459;28;20128;-73
2022/06/07 07:30:06;;;;;;;5.40;3.70;;;;;;;;;;5014696;28;20044;-73
2022/06/07 07:36:10;;;;;;;3.75;3.38;;;;;;;;;;5034276;28;20087;-73
2022/06/07 07:45:58;;;;;;;4.50;3.78;;;;;;;;;;5022836;28;20071;-73
2022/06/07 07:52:00;;;;;;;3.22;3.00;;;;;;;;;;5056257;28;20036;-73
2022/06/07 07:58:05;;;;;;;4.20;3.30;;;;;;;;;;5055856;28;20083;-73
2022/06/07 08:04:07;;;;;;;3.33;3.13;;;;;;;;;;5056013;28;20127;-73
2022/06/07 08:10:14;;;;;;;3.95;3.65;;;;;;;;;;5055718;28;20064;-73
2022/06/07 08:16:14;;;;;;;3.10;2.90;;;;;;;;;;5052152;28;20032;-73
2022/06/07 08:22:16;;;;;;;2.65;2.45;;;;;;;;;;5055688;28;20047;-73
2022/06/07 08:28:15;;;;;;;3.13;2.78;;;;;;;;;;5052047;28;20024;-73
2022/06/07 08:44:41;;;;;;;3.22;3.03;;;;;;;;;;5095486;28;20189;-73
2022/06/07 08:50:55;;;;;;;3.05;2.85;;;;;;;;;;5095150;28;20038;-73
2022/06/07 08:57:00;;;;;;;3.80;3.60;;;;;;;;;;5095235;28;20141;-73
2022/06/07 09:13:31;;;;;;;3.28;3.08;;;;;;;;;;5032760;28;20048;-73
2022/06/07 09:19:32;;;;;;;3.15;2.95;;;;;;;;;;5032650;28;20455;-73
2022/06/07 09:25:35;;;;;;;6.13;4.13;;;;;;;;;;5032523;28;20068;-73
2022/06/07 09:31:37;;;;;;;5.05;3.67;;;;;;;;;;5032492;28;20129;-73
2022/06/07 09:44:10;;;;;;;3.85;3.55;;;;;;;;;;5094451;28;20035;-73
2022/06/07 09:50:25;;;;;;;3.97;3.67;;;;;;;;;;5094018;28;20035;-73
2022/06/07 09:56:30;;;;;;;4.32;3.35;;;;;;;;;;5094259;28;20125;-73
2022/06/07 10:09:51;;;;;;;3.50;3.30;;;;;;;;;;5031871;28;20040;-73
2022/06/07 10:12:41;;;;;;;3.30;3.10;;;;;;;;;;5015036;28;20037;-73
2022/06/07 10:18:55;;;;;;;3.63;3.20;;;;;;;;;;5031581;28;20036;-73
2022/06/07 10:24:55;;;;;;;4.00;3.45;;;;;;;;;;5031731;28;20565;-73
2022/06/07 10:31:04;;;;;;;3.33;2.80;;;;;;;;;;5031511;28;20040;-73
2022/06/07 10:44:18;;;;;;;3.20;3.00;;;;;;;;;;5093746;28;20118;-73
2022/06/07 10:57:42;;;;;;;5.10;3.40;;;;;;;;;;5093353;28;20444;-73
2022/06/07 11:03:42;;;;;;;2.50;2.30;;;;;;;;;;5097230;28;20046;-73
2022/06/07 11:09:55;;;;;;;2.83;2.50;;;;;;;;;;5097224;28;20035;-73
2022/06/07 11:26:24;;;;;;;5.80;3.08;;;;;;;;;;4995440;28;20120;-73
2022/06/07 11:32:39;;;;;;;3.30;3.08;;;;;;;;;;4995343;28;20130;-73
2022/06/07 11:38:54;;;;;;;4.03;3.65;;;;;;;;;;4995216;28;20026;-73
2022/06/07 11:53:31;;;;;;;3.55;3.35;;;;;;;;;;5056066;28;20075;-73
2022/06/07 12:00:23;;;;;;;4.45;3.90;;;;;;;;;;5033982;28;20040;-73
2022/06/07 12:06:22;;;;;;;6.82;4.07;;;;;;;;;;5033952;28;20119;-73
2022/06/07 12:09:14;;;;;;;4.93;4.43;;;;;;;;;;5033742;28;20492;-73
2022/06/07 12:15:17;;;;;;;5.50;4.78;;;;;;;;;;5033910;28;20052;-73
2022/06/07 12:21:16;;;;;;;4.10;3.80;;;;;;;;;;5033778;28;20067;-73
2022/06/07 12:27:25;;;;;;;3.85;3.60;;;;;;;;;;5044531;28;20024;-73
2022/06/07 12:36:36;;;;;;;8.85;3.65;;;;;;;;;;5055435;28;20082;-73
2022/06/07 12:42:45;;;;;;;5.28;4.75;;;;;;;;;;5055497;28;20035;-72
2022/06/07 12:45:34;;;;;;;4.88;3.38;;;;;;;;;;5088811;28;20043;-73
2022/06/07 12:48:01;;;;;;;2.70;2.50;;;;;;;;;;5077759;28;20526;-73
2022/06/07 12:50:29;;;;;;;3.97;2.72;;;;;;;;;;5095653;28;20438;-73
2022/06/07 12:52:55;;;;;;;3.00;2.80;;;;;;;;;;5077141;28;20181;-73
2022/06/07 12:59:00;;;;;;;2.90;2.80;;;;;;;;;;5094992;28;20035;-73
2022/06/07 13:01:37;;;;;;;4.95;2.78;;;;;;;;;;5076733;28;20551;-73
2022/06/07 13:04:04;;;;;;;3.13;2.80;;;;;;;;;;5094799;28;20402;-73
2022/06/07 13:06:30;;;;;;;5.55;2.38;;;;;;;;;;5094653;28;20462;-70
2022/06/07 13:09:21;;;;;;;2.92;2.60;;;;;;;;;;5076886;28;20047;-73
2022/06/07 13:11:47;;;;;;;2.65;2.50;;;;;;;;;;5083097;28;20044;-74
2022/06/07 13:14:14;;;;;;;2.78;2.35;;;;;;;;;;5076362;28;20051;-69
2022/06/07 13:16:42;;;;;;;2.50;2.30;;;;;;;;;;5094524;28;20036;-74
2022/06/07 13:19:13;;;;;;;3.03;2.17;;;;;;;;;;5094317;28;20035;-61
2022/06/07 13:21:48;;;;;;;2.40;2.30;;;;;;;;;;5094342;28;20046;-72
2022/06/07 13:24:22;;;;;;;2.55;2.38;;;;;;;;;;5094156;28;20032;-72
2022/06/07 13:26:48;;;;;;;1.90;1.80;;;;;;;;;;5094165;28;20040;-73
2022/06/07 13:29:13;;;;;;;1.92;1.80;;;;;;;;;;5094037;28;20042;-73
2022/06/07 13:31:41;;;;;;;1.52;1.50;;;;;;;;;;5093963;28;20054;-73
2022/06/07 13:34:26;;;;;;;1.38;1.27;;;;;;;;;;5093173;28;20036;-73
2022/06/07 13:37:07;;;;;;;1.90;1.80;;;;;;;;;;5092795;28;20051;-73
2022/06/07 13:39:33;;;;;;;1.80;1.70;;;;;;;;;;5092681;28;20050;-73
2022/06/07 13:42:09;;;;;;;1.80;1.73;;;;;;;;;;5092400;28;20383;-73
2022/06/07 14:13:35;;;;;;;2.45;2.30;;;;;;;;;;4992552;28;20037;-73
2022/06/07 14:19:39;;;;;;;2.20;2.10;;;;;;;;;;4992499;28;20120;-74
2022/06/07 14:25:39;;;;;;;4.93;2.60;;;;;;;;;;4992457;28;20084;-74
2022/06/07 14:31:40;;;;;;;9.13;3.80;;;;;;;;;;4992422;28;20556;-75
2022/06/07 14:37:40;;;;;;;3.15;2.85;;;;;;;;;;4996385;28;20468;-74
2022/06/07 14:43:41;;;;;;;3.08;2.80;;;;;;;;;;5082563;28;20074;-74
2022/06/07 14:53:31;;;;;;;17.38;8.55;;;;;;;;;;5097679;28;20058;-73
2022/06/07 14:59:32;;;;;;;20.20;9.77;;;;;;;;;;5097639;28;20047;-74
2022/06/07 15:05:35;;;;;;;4.20;3.80;;;;;;;;;;5097480;28;20089;-74
2022/06/07 15:11:35;;;;;;;21.10;10.80;;;;;;;;;;5097055;28;20031;-74
2022/06/07 15:17:38;;;;;;;5.93;3.65;;;;;;;;;;5096739;28;20359;-73
2022/06/07 15:20:04;;;;;;;3.25;2.50;;;;;;;;;;5096735;28;20051;-67
2022/06/07 15:22:30;;;;;;;2.70;2.50;;;;;;;;;;5097280;28;20060;-72
2022/06/07 15:24:55;;;;;;;2.42;2.33;;;;;;;;;;5078996;28;20122;-70
2022/06/07 15:27:21;;;;;;;2.95;2.42;;;;;;;;;;5097314;28;20154;-83
2022/06/07 15:29:52;;;;;;;3.33;2.60;;;;;;;;;;5096622;28;20118;-82
2022/06/07 15:32:19;;;;;;;2.50;2.35;;;;;;;;;;5097069;28;20043;-82
2022/06/07 15:34:46;;;;;;;3.05;2.60;;;;;;;;;;5096897;28;20024;-82
2022/06/07 15:37:24;;;;;;;2.50;2.40;;;;;;;;;;5096558;28;20471;-82
2022/06/07 15:39:50;;;;;;;2.60;2.40;;;;;;;;;;5097036;28;20440;-82
2022/06/07 15:49:12;;;;;;;3.60;3.03;;;;;;;;;;5096389;28;20035;-83
2022/06/07 15:51:38;;;;;;;3.05;2.85;;;;;;;;;;5096258;28;20119;-82
2022/06/07 15:54:04;;;;;;;3.45;2.85;;;;;;;;;;5096194;28;20111;-81
2022/06/07 15:56:32;;;;;;;2.80;2.60;;;;;;;;;;5096238;28;20530;-81
2022/06/07 15:59:04;;;;;;;3.20;2.95;;;;;;;;;;5096527;28;20060;-81
2022/06/07 16:01:41;;;;;;;3.22;2.95;;;;;;;;;;5096123;28;20390;-82
2022/06/07 16:04:08;;;;;;;3.30;3.00;;;;;;;;;;5096033;28;20040;-82
2022/06/07 16:10:09;;;;;;;3.92;3.60;;;;;;;;;;5096115;28;20133;-83
2022/06/07 16:16:10;;;;;;;6.10;4.05;;;;;;;;;;5092644;28;20121;-83
2022/06/07 16:18:35;;;;;;;4.80;4.35;;;;;;;;;;5093919;28;20101;-83
2022/06/07 16:21:02;;;;;;;6.10;4.87;;;;;;;;;;5092752;28;20028;-83
2022/06/07 16:23:27;;;;;;;6.18;5.05;;;;;;;;;;5094718;28;20278;-81
2022/06/07 16:25:54;;;;;;;4.40;3.75;;;;;;;;;;5093526;28;20118;-81
2022/06/07 16:33:50;;;;;;;3.75;3.40;;;;;;;;;;5094980;28;20036;-82
2022/06/07 16:36:18;;;;;;;3.15;2.95;;;;;;;;;;5095164;28;20024;-82
2022/06/07 16:38:52;;;;;;;3.15;2.95;;;;;;;;;;5095067;28;20028;-81
2022/06/07 16:41:18;;;;;;;3.30;3.10;;;;;;;;;;5094934;28;20079;-82
2022/06/07 16:44:02;;;;;;;4.82;3.75;;;;;;;;;;5094625;28;20059;-79
2022/06/07 16:46:28;;;;;;;5.32;4.72;;;;;;;;;;5094719;28;20059;-79
2022/06/07 16:48:54;;;;;;;3.47;3.28;;;;;;;;;;5094551;28;20040;-79
2022/06/07 16:51:22;;;;;;;2.72;2.53;;;;;;;;;;5093971;28;20043;-79
2022/06/07 16:53:48;;;;;;;3.17;2.83;;;;;;;;;;5095048;28;20032;-80
2022/06/07 16:56:23;;;;;;;3.38;2.70;;;;;;;;;;5076648;28;20043;-80
2022/06/07 16:58:49;;;;;;;4.32;4.00;;;;;;;;;;5093645;28;20109;-80
2022/06/07 17:01:15;;;;;;;8.23;6.65;;;;;;;;;;5094257;28;20039;-79
2022/06/07 17:03:44;;;;;;;4.82;4.40;;;;;;;;;;5094446;28;20048;-79
2022/06/07 17:06:10;;;;;;;3.15;2.95;;;;;;;;;;5094548;28;20109;-81
2022/06/07 17:08:35;;;;;;;3.78;2.72;;;;;;;;;;5094424;28;20076;-79
2022/06/07 17:11:01;;;;;;;3.63;3.22;;;;;;;;;;5094100;28;20077;-80
2022/06/07 17:13:29;;;;;;;3.70;3.40;;;;;;;;;;5094361;28;20055;-80
2022/06/07 17:15:56;;;;;;;3.60;3.28;;;;;;;;;;5094435;28;20051;-80
2022/06/07 17:18:22;;;;;;;4.07;3.50;;;;;;;;;;5094278;28;20118;-80
2022/06/07 17:20:48;;;;;;;3.67;3.22;;;;;;;;;;5094155;28;20103;-80
2022/06/07 17:23:14;;;;;;;3.45;3.25;;;;;;;;;;5093781;28;20070;-80
2022/06/07 17:25:40;;;;;;;3.45;3.22;;;;;;;;;;5094220;28;20028;-81
2022/06/07 17:28:06;;;;;;;4.18;3.88;;;;;;;;;;5075847;28;20482;-81
2022/06/07 17:30:31;;;;;;;6.50;4.88;;;;;;;;;;5094026;28;20066;-81
2022/06/07 17:32:56;;;;;;;3.90;3.60;;;;;;;;;;5093911;28;20043;-81
2022/06/07 17:35:22;;;;;;;6.00;5.50;;;;;;;;;;5092814;28;20089;-81
2022/06/07 17:37:48;;;;;;;6.15;4.43;;;;;;;;;;5092098;28;20520;-81
2022/06/07 17:40:15;;;;;;;4.45;4.05;;;;;;;;;;5092711;28;20537;-81
2022/06/07 17:42:41;;;;;;;5.50;4.30;;;;;;;;;;5092614;28;20047;-81
2022/06/07 17:45:07;;;;;;;5.13;4.57;;;;;;;;;;5092880;28;20032;-81
2022/06/07 17:47:33;;;;;;;5.85;5.20;;;;;;;;;;5091138;28;20066;-81
2022/06/07 17:49:59;;;;;;;4.10;3.80;;;;;;;;;;5092306;28;20044;-81
2022/06/07 17:52:26;;;;;;;3.78;3.50;;;;;;;;;;5074079;28;20493;-81
2022/06/07 17:54:52;;;;;;;4.32;3.72;;;;;;;;;;5092576;28;20077;-81
2022/06/07 17:57:17;;;;;;;4.18;3.83;;;;;;;;;;5092342;28;20028;-81
2022/06/07 17:59:45;;;;;;;3.72;3.40;;;;;;;;;;5075090;28;20032;-81
2022/06/07 18:02:12;;;;;;;3.50;3.30;;;;;;;;;;5075382;28;20405;-79
2022/06/07 18:04:37;;;;;;;3.30;3.10;;;;;;;;;;5093568;28;20047;-80
2022/06/07 18:07:03;;;;;;;3.88;3.17;;;;;;;;;;5092427;28;20040;-80
2022/06/07 18:09:28;;;;;;;3.83;3.53;;;;;;;;;;5092553;28;20483;-80
2022/06/07 18:11:53;;;;;;;4.18;3.88;;;;;;;;;;5093556;28;20126;-80
2022/06/07 18:14:19;;;;;;;3.65;3.17;;;;;;;;;;5075582;28;20099;-79
2022/06/07 18:16:44;;;;;;;3.20;3.00;;;;;;;;;;5093412;28;20054;-80
2022/06/07 18:19:10;;;;;;;3.00;2.80;;;;;;;;;;5092864;28;20030;-80
2022/06/07 18:21:36;;;;;;;4.47;3.97;;;;;;;;;;5075222;28;20040;-81
2022/06/07 18:24:02;;;;;;;4.72;4.03;;;;;;;;;;5093142;28;20082;-81
2022/06/07 18:26:27;;;;;;;4.40;4.00;;;;;;;;;;5075382;28;20048;-81
2022/06/07 18:28:53;;;;;;;3.40;3.10;;;;;;;;;;5092964;28;20103;-81
2022/06/07 18:31:28;;;;;;;3.28;2.97;;;;;;;;;;5091988;28;20028;-81
2022/06/07 18:33:54;;;;;;;5.40;4.90;;;;;;;;;;5091816;28;20032;-81
2022/06/07 18:36:23;;;;;;;5.30;4.22;;;;;;;;;;5092037;28;20085;-82
2022/06/07 18:38:48;;;;;;;3.25;2.95;;;;;;;;;;5092155;28;20070;-81
2022/06/07 18:41:13;;;;;;;3.37;3.17;;;;;;;;;;5091849;28;20078;-82
2022/06/07 18:43:39;;;;;;;3.13;2.80;;;;;;;;;;5073737;28;20349;-81
2022/06/07 18:46:05;;;;;;;4.75;2.65;;;;;;;;;;5073683;28;20470;-81
2022/06/07 18:48:30;;;;;;;3.05;2.85;;;;;;;;;;5091822;28;20032;-81
2022/06/07 18:50:56;;;;;;;3.33;3.03;;;;;;;;;;5091607;28;20043;-82
2022/06/07 18:53:26;;;;;;;3.33;3.05;;;;;;;;;;5092100;28;20115;-76
2022/06/07 18:55:52;;;;;;;3.42;3.17;;;;;;;;;;5057845;28;20470;-76
2022/06/07 18:58:18;;;;;;;3.03;2.88;;;;;;;;;;5057937;28;20032;-76
2022/06/07 19:00:43;;;;;;;3.90;3.40;;;;;;;;;;5091535;28;20055;-75
2022/06/07 19:03:11;;;;;;;3.53;3.22;;;;;;;;;;5092245;28;20366;-75
2022/06/07 19:05:37;;;;;;;3.20;3.05;;;;;;;;;;5091742;28;20137;-75
2022/06/07 19:08:02;;;;;;;3.63;3.35;;;;;;;;;;5091974;28;20171;-75
2022/06/07 19:10:29;;;;;;;3.20;2.95;;;;;;;;;;5073659;28;20490;-75
2022/06/07 19:12:54;;;;;;;3.65;3.42;;;;;;;;;;5091348;28;20028;-75
2022/06/07 19:15:26;;;;;;;3.60;3.40;;;;;;;;;;5091556;28;20119;-75
2022/06/07 19:17:51;;;;;;;3.90;3.58;;;;;;;;;;5091531;28;20032;-75
2022/06/07 19:20:17;;;;;;;3.83;3.50;;;;;;;;;;5093240;28;20038;-75
2022/06/07 19:22:43;;;;;;;4.40;4.00;;;;;;;;;;5095732;28;20443;-75
2022/06/07 19:25:09;;;;;;;4.13;3.83;;;;;;;;;;5094775;28;20035;-75
2022/06/07 19:27:35;;;;;;;4.30;4.00;;;;;;;;;;5077105;28;20512;-75
2022/06/07 19:30:00;;;;;;;4.93;4.43;;;;;;;;;;5094408;28;20072;-75
2022/06/07 19:32:26;;;;;;;5.13;4.65;;;;;;;;;;5095253;28;20047;-75
2022/06/07 19:34:51;;;;;;;4.95;4.45;;;;;;;;;;5076851;28;20028;-75
2022/06/07 19:37:18;;;;;;;6.78;5.07;;;;;;;;;;5095162;28;20032;-75
2022/06/07 19:39:44;;;;;;;5.72;4.72;;;;;;;;;;5094793;28;20035;-75
2022/06/07 19:42:09;;;;;;;7.45;4.38;;;;;;;;;;5095139;28;20111;-75
2022/06/07 19:44:35;;;;;;;4.88;4.47;;;;;;;;;;5094875;28;20385;-75
2022/06/07 19:47:00;;;;;;;4.25;3.95;;;;;;;;;;5094869;28;20083;-75
2022/06/07 19:49:27;;;;;;;4.30;4.00;;;;;;;;;;5094511;28;20048;-75
2022/06/07 19:51:55;;;;;;;4.07;3.83;;;;;;;;;;5093040;28;20556;-75
2022/06/07 19:54:21;;;;;;;4.30;4.00;;;;;;;;;;5094657;28;20038;-75
2022/06/07 19:56:47;;;;;;;4.40;4.10;;;;;;;;;;5094573;28;20375;-75
2022/06/07 19:59:12;;;;;;;3.80;3.60;;;;;;;;;;5094851;28;20085;-75
2022/06/07 20:01:38;;;;;;;3.55;3.28;;;;;;;;;;5094346;28;20107;-75
2022/06/07 20:04:04;;;;;;;3.78;3.53;;;;;;;;;;5094197;28;20024;-75
2022/06/07 20:06:30;;;;;;;3.80;3.50;;;;;;;;;;5093678;28;20036;-73
2022/06/07 20:08:55;;;;;;;5.45;4.32;;;;;;;;;;5075785;28;20032;-75
2022/06/07 20:11:21;;;;;;;4.50;4.07;;;;;;;;;;5093925;28;20054;-75
2022/06/07 20:13:46;;;;;;;4.78;4.38;;;;;;;;;;5076146;28;20389;-75
2022/06/07 20:16:12;;;;;;;4.30;4.03;;;;;;;;;;5093891;28;20101;-75
2022/06/07 20:18:38;;;;;;;4.72;4.32;;;;;;;;;;5093976;28;20024;-75
2022/06/07 20:21:03;;;;;;;5.20;4.80;;;;;;;;;;5094008;28;20081;-75
2022/06/07 20:23:29;;;;;;;4.50;4.10;;;;;;;;;;5076231;28;20383;-75
2022/06/07 20:25:54;;;;;;;4.15;3.85;;;;;;;;;;5074917;28;20493;-75
2022/06/07 20:28:19;;;;;;;4.83;4.50;;;;;;;;;;5094266;28;20044;-75
2022/06/07 20:30:45;;;;;;;4.88;4.47;;;;;;;;;;5093697;28;20286;-75
2022/06/07 20:33:10;;;;;;;4.38;4.13;;;;;;;;;;5093118;28;20416;-75
2022/06/07 20:39:11;;;;;;;3.88;3.63;;;;;;;;;;5095893;28;20134;-75
2022/06/07 21:03:44;;;;;;;4.45;4.13;;;;;;;;;;5053550;28;20041;-81
2022/06/07 21:06:11;;;;;;;4.47;3.97;;;;;;;;;;5062647;23;20556;-77
2022/06/07 21:08:37;;;;;;;5.22;4.70;;;;;;;;;;5072723;22;20526;-78
2022/06/07 21:11:02;;;;;;;4.68;4.22;;;;;;;;;;5074732;28;20110;-78
2022/06/07 21:13:28;;;;;;;4.72;4.32;;;;;;;;;;5074431;28;20036;-78
2022/06/07 21:15:53;;;;;;;5.60;5.20;;;;;;;;;;5056843;28;20035;-78